createdAt,value
2019-03-15T00:00:52.813Z,9.90
2019-03-15T00:03:20.615Z,9.90
2019-03-15T00:05:48.366Z,9.90
2019-03-15T00:08:16.087Z,10.00
2019-03-15T00:11:03.174Z,10.00
2019-03-15T00:13:31.042Z,10.00
2019-03-15T00:15:59.111Z,10.10
2019-03-15T00:18:27.097Z,10.10
2019-03-15T00:20:55.149Z,10.10
2019-03-15T00:23:23.145Z,10.10
2019-03-15T00:25:51.091Z,10.20
2019-03-15T00:28:19.193Z,10.20
2019-03-15T00:30:47.345Z,10.10
2019-03-15T00:33:15.090Z,10.10
2019-03-15T00:35:42.829Z,10.10
2019-03-15T00:38:10.574Z,10.10
2019-03-15T00:40:38.285Z,10.10
2019-03-15T00:43:06.032Z,10.10
2019-03-15T00:45:33.782Z,10.00
2019-03-15T00:48:01.791Z,10.00
2019-03-15T00:50:29.504Z,9.90
2019-03-15T00:52:57.241Z,9.90
2019-03-15T00:55:24.985Z,9.80
2019-03-15T00:57:52.745Z,9.80
2019-03-15T01:00:20.458Z,9.80
2019-03-15T01:02:48.206Z,9.80
2019-03-15T01:05:16.182Z,9.80
2019-03-15T01:07:44.323Z,9.90
2019-03-15T01:10:12.391Z,9.90
2019-03-15T01:12:40.273Z,10.00
2019-03-15T01:15:08.273Z,10.00
2019-03-15T01:17:36.217Z,10.00
2019-03-15T01:20:04.513Z,10.00
2019-03-15T01:22:32.481Z,10.00
2019-03-15T01:25:00.552Z,10.00
2019-03-15T01:27:28.620Z,10.00
2019-03-15T01:29:56.604Z,10.10
2019-03-15T01:32:24.563Z,10.10
2019-03-15T01:34:52.578Z,10.00
2019-03-15T01:37:20.313Z,10.00
2019-03-15T01:39:47.993Z,10.00
2019-03-15T01:42:15.696Z,10.00
2019-03-15T01:44:43.433Z,10.00
2019-03-15T01:47:11.152Z,10.10
2019-03-15T01:49:39.090Z,10.10
2019-03-15T01:52:07.422Z,10.10
2019-03-15T01:54:35.547Z,10.10
2019-03-15T01:57:03.499Z,10.00
2019-03-15T01:59:31.591Z,10.00
2019-03-15T02:01:59.561Z,9.90
2019-03-15T02:04:27.467Z,9.90
2019-03-15T02:06:55.397Z,9.90
2019-03-15T02:09:23.389Z,9.80
2019-03-15T02:11:51.344Z,9.80
2019-03-15T02:14:19.371Z,9.80
2019-03-15T02:16:47.298Z,9.80
2019-03-15T02:19:15.025Z,9.70
2019-03-15T02:21:43.433Z,9.70
2019-03-15T02:24:11.439Z,9.70
2019-03-15T02:26:39.231Z,9.70
2019-03-15T02:29:07.301Z,9.70
2019-03-15T02:31:35.009Z,9.70
2019-03-15T02:34:02.912Z,9.70
2019-03-15T02:36:30.649Z,9.70
2019-03-15T02:38:58.362Z,9.70
2019-03-15T02:41:26.339Z,9.60
2019-03-15T02:43:54.201Z,9.60
2019-03-15T02:46:22.200Z,9.60
2019-03-15T02:48:50.149Z,9.60
2019-03-15T02:51:18.245Z,9.60
2019-03-15T02:53:46.199Z,9.60
2019-03-15T02:56:14.989Z,9.60
2019-03-15T02:58:42.805Z,9.60
2019-03-15T03:01:10.519Z,9.60
2019-03-15T03:03:38.508Z,9.60
2019-03-15T03:06:06.413Z,9.70
2019-03-15T03:08:34.132Z,9.60
2019-03-15T03:11:02.043Z,9.60
2019-03-15T03:13:29.996Z,9.60
2019-03-15T03:15:57.773Z,9.60
2019-03-15T03:18:25.487Z,9.60
2019-03-15T03:20:53.221Z,9.70
2019-03-15T03:23:20.979Z,9.60
2019-03-15T03:25:48.697Z,9.60
2019-03-15T03:28:16.392Z,9.60
2019-03-15T03:30:45.734Z,9.70
2019-03-15T03:33:14.066Z,9.70
2019-03-15T03:35:42.169Z,9.70
2019-03-15T03:38:10.147Z,9.70
2019-03-15T03:40:37.876Z,9.70
2019-03-15T03:43:05.598Z,9.70
2019-03-15T03:45:33.324Z,9.70
2019-03-15T03:48:01.038Z,9.70
2019-03-15T03:50:28.942Z,9.70
2019-03-15T03:52:56.974Z,9.70
2019-03-15T03:55:25.555Z,9.70
2019-03-15T03:57:53.639Z,9.70
2019-03-15T04:00:21.532Z,9.60
2019-03-15T04:02:49.509Z,9.60
2019-03-15T04:05:18.181Z,9.60
2019-03-15T04:07:46.113Z,9.60
2019-03-15T04:10:59.895Z,9.60
2019-03-15T04:13:27.562Z,9.60
2019-03-15T04:15:55.278Z,9.60
2019-03-15T04:18:22.850Z,9.60
2019-03-15T04:20:50.471Z,9.60
2019-03-15T04:23:18.049Z,9.60
2019-03-15T04:25:45.746Z,9.60
2019-03-15T04:28:13.445Z,9.60
2019-03-15T04:30:41.021Z,9.60
2019-03-15T04:33:08.663Z,9.60
2019-03-15T04:35:36.254Z,9.60
2019-03-15T04:38:04.067Z,9.60
2019-03-15T04:40:31.873Z,9.60
2019-03-15T04:42:59.471Z,9.60
2019-03-15T04:45:27.306Z,9.60
2019-03-15T04:47:54.907Z,9.60
2019-03-15T04:50:22.705Z,9.60
2019-03-15T04:52:50.433Z,9.60
2019-03-15T04:55:18.025Z,9.60
2019-03-15T04:57:45.749Z,9.60
2019-03-15T05:00:13.382Z,9.60
2019-03-15T05:02:45.789Z,9.60
2019-03-15T05:05:13.369Z,9.60
2019-03-15T05:07:41.189Z,9.60
2019-03-15T05:10:09.095Z,9.60
2019-03-15T05:12:36.787Z,9.70
2019-03-15T05:15:04.471Z,9.60
2019-03-15T05:17:32.188Z,9.70
2019-03-15T05:19:59.866Z,9.70
2019-03-15T05:22:27.496Z,9.70
2019-03-15T05:24:55.233Z,9.70
2019-03-15T05:27:22.956Z,9.70
2019-03-15T05:29:50.685Z,9.70
2019-03-15T05:32:18.397Z,9.60
2019-03-15T05:34:46.148Z,9.70
2019-03-15T05:37:13.874Z,9.70
2019-03-15T05:39:42.474Z,9.70
2019-03-15T05:42:10.186Z,9.70
2019-03-15T05:44:37.920Z,9.70
2019-03-15T05:47:06.171Z,9.80
2019-03-15T05:49:34.167Z,9.80
2019-03-15T05:52:02.013Z,9.80
2019-03-15T05:54:30.041Z,9.80
2019-03-15T05:56:57.968Z,9.90
2019-03-15T05:59:25.865Z,9.90
2019-03-15T06:01:53.832Z,9.90
2019-03-15T06:04:21.829Z,9.80
2019-03-15T06:06:49.561Z,9.90
2019-03-15T06:09:17.301Z,9.90
2019-03-15T06:11:45.014Z,9.90
2019-03-15T06:14:12.867Z,9.90
2019-03-15T06:16:40.596Z,9.90
2019-03-15T06:19:08.333Z,9.80
2019-03-15T06:21:36.097Z,9.80
2019-03-15T06:24:03.853Z,9.90
2019-03-15T06:26:32.025Z,9.90
2019-03-15T06:29:01.652Z,9.90
2019-03-15T06:31:29.742Z,9.90
2019-03-15T06:33:57.541Z,9.90
2019-03-15T06:36:25.613Z,9.90
2019-03-15T06:38:53.405Z,9.90
2019-03-15T06:41:21.157Z,9.90
2019-03-15T06:43:49.211Z,9.90
2019-03-15T06:46:17.173Z,9.90
2019-03-15T06:48:45.475Z,9.90
2019-03-15T06:51:13.536Z,10.00
2019-03-15T06:53:41.587Z,10.00
2019-03-15T06:56:09.497Z,10.00
2019-03-15T06:58:51.669Z,10.00
2019-03-15T07:01:11.264Z,10.00
2019-03-15T07:03:39.164Z,10.10
2019-03-15T07:06:06.946Z,10.10
2019-03-15T07:08:34.756Z,10.10
2019-03-15T07:11:02.537Z,10.10
2019-03-15T07:13:30.246Z,10.10
2019-03-15T07:15:57.997Z,10.10
2019-03-15T07:18:25.730Z,10.10
2019-03-15T07:20:53.767Z,10.20
2019-03-15T07:23:21.520Z,10.20
2019-03-15T07:25:49.262Z,10.20
2019-03-15T07:28:16.945Z,10.20
2019-03-15T07:30:44.920Z,10.20
2019-03-15T07:33:12.969Z,10.30
2019-03-15T07:35:40.725Z,10.30
2019-03-15T07:38:09.134Z,10.30
2019-03-15T07:40:36.853Z,10.30
2019-03-15T07:43:05.486Z,10.40
2019-03-15T07:45:33.197Z,10.40
2019-03-15T07:48:00.977Z,10.40
2019-03-15T07:50:28.715Z,10.40
2019-03-15T07:52:56.447Z,10.40
2019-03-15T07:55:24.432Z,10.40
2019-03-15T07:57:52.407Z,10.50
2019-03-15T08:00:20.151Z,10.50
2019-03-15T08:02:47.870Z,10.60
2019-03-15T08:05:15.605Z,10.60
2019-03-15T08:07:45.693Z,10.70
2019-03-15T08:10:12.883Z,10.70
2019-03-15T08:12:40.629Z,10.80
2019-03-15T08:15:08.402Z,10.80
2019-03-15T08:17:36.157Z,10.90
2019-03-15T08:20:04.121Z,10.90
2019-03-15T08:22:31.874Z,11.00
2019-03-15T08:24:59.588Z,11.00
2019-03-15T08:27:27.337Z,11.00
2019-03-15T08:29:55.073Z,11.00
2019-03-15T08:32:22.939Z,11.10
2019-03-15T08:34:50.931Z,11.10
2019-03-15T08:37:18.996Z,11.20
2019-03-15T08:39:46.864Z,11.20
2019-03-15T08:42:14.878Z,11.30
2019-03-15T08:44:43.013Z,11.40
2019-03-15T08:47:10.753Z,11.50
2019-03-15T08:49:38.505Z,11.50
2019-03-15T08:52:06.230Z,11.50
2019-03-15T08:54:33.942Z,11.60
2019-03-15T08:57:01.672Z,11.60
2019-03-15T08:59:29.394Z,11.60
2019-03-15T09:01:57.229Z,11.70
2019-03-15T09:04:24.958Z,11.80
2019-03-15T09:06:52.835Z,11.80
2019-03-15T09:09:20.829Z,11.90
2019-03-15T09:11:48.562Z,11.90
2019-03-15T09:14:16.335Z,12.10
2019-03-15T09:16:44.329Z,12.20
2019-03-15T09:19:12.133Z,12.30
2019-03-15T09:21:39.867Z,12.20
2019-03-15T09:24:07.857Z,12.20
2019-03-15T09:26:35.817Z,12.10
2019-03-15T09:29:03.905Z,12.00
2019-03-15T09:31:46.651Z,12.00
2019-03-15T09:34:02.110Z,12.00
2019-03-15T09:36:29.853Z,12.10
2019-03-15T09:38:57.965Z,12.00
2019-03-15T09:41:31.844Z,12.10
2019-03-15T09:43:55.468Z,12.10
2019-03-15T09:46:23.622Z,12.10
2019-03-15T09:48:51.682Z,12.10
2019-03-15T09:51:19.777Z,12.20
2019-03-15T09:53:47.761Z,12.30
2019-03-15T09:56:15.714Z,12.40
2019-03-15T09:58:43.805Z,12.50
2019-03-15T10:01:11.934Z,12.60
2019-03-15T10:03:40.478Z,12.80
2019-03-15T10:06:14.772Z,13.00
2019-03-15T10:08:38.087Z,13.20
2019-03-15T10:11:05.925Z,13.20
2019-03-15T10:13:33.884Z,13.30
2019-03-15T10:16:01.619Z,13.40
2019-03-15T10:18:29.527Z,13.40
2019-03-15T10:20:57.513Z,13.50
2019-03-15T10:23:25.365Z,13.60
2019-03-15T10:25:53.245Z,13.90
2019-03-15T10:28:21.221Z,14.10
2019-03-15T10:30:48.991Z,14.20
2019-03-15T10:33:16.673Z,14.30
2019-03-15T10:35:44.409Z,14.40
2019-03-15T10:38:12.505Z,14.50
2019-03-15T10:40:40.394Z,14.50
2019-03-15T10:43:08.454Z,14.50
2019-03-15T10:45:36.552Z,14.70
2019-03-15T10:48:07.967Z,14.80
2019-03-15T10:50:34.669Z,14.90
2019-03-15T10:53:02.602Z,14.80
2019-03-15T10:55:30.712Z,14.90
2019-03-15T10:57:59.187Z,14.90
2019-03-15T11:00:27.734Z,14.90
2019-03-15T11:02:55.637Z,14.90
2019-03-15T11:05:23.652Z,14.80
2019-03-15T11:07:51.461Z,14.70
2019-03-15T11:10:19.426Z,14.70
2019-03-15T11:12:47.341Z,14.80
2019-03-15T11:15:15.359Z,15.00
2019-03-15T11:17:43.046Z,14.70
2019-03-15T11:20:10.881Z,14.40
2019-03-15T11:22:38.900Z,14.30
2019-03-15T11:25:06.881Z,14.30
2019-03-15T11:27:34.885Z,14.40
2019-03-15T11:30:02.957Z,14.60
2019-03-15T11:32:30.750Z,14.70
2019-03-15T11:34:58.775Z,14.80
2019-03-15T11:37:26.575Z,15.30
2019-03-15T11:39:54.450Z,15.60
2019-03-15T11:42:22.421Z,15.50
2019-03-15T11:44:50.407Z,15.70
2019-03-15T11:47:18.429Z,15.80
2019-03-15T11:49:46.433Z,15.80
2019-03-15T11:52:14.331Z,15.90
2019-03-15T11:54:42.085Z,16.00
2019-03-15T11:57:10.183Z,16.10
2019-03-15T11:59:37.901Z,16.20
2019-03-15T12:02:05.816Z,16.20
2019-03-15T12:04:33.765Z,16.20
2019-03-15T12:07:01.861Z,16.20
2019-03-15T12:09:29.833Z,16.10
2019-03-15T12:11:57.813Z,16.00
2019-03-15T12:14:25.574Z,15.70
2019-03-15T12:16:53.305Z,15.80
2019-03-15T12:19:21.053Z,15.70
2019-03-15T12:21:49.125Z,15.60
2019-03-15T12:24:17.034Z,15.60
2019-03-15T12:26:44.797Z,15.50
2019-03-15T12:29:12.597Z,15.50
2019-03-15T12:31:40.569Z,15.50
2019-03-15T12:34:08.465Z,15.40
2019-03-15T12:36:36.214Z,15.20
2019-03-15T12:39:06.191Z,15.20
2019-03-15T12:41:33.998Z,15.50
2019-03-15T12:44:01.901Z,15.50
2019-03-15T12:46:29.874Z,15.50
2019-03-15T12:48:57.663Z,15.30
2019-03-15T12:51:32.026Z,15.40
2019-03-15T12:53:55.243Z,15.30
2019-03-15T12:56:22.957Z,15.50
2019-03-15T12:58:50.693Z,15.60
2019-03-15T13:01:18.475Z,15.50
2019-03-15T13:03:46.405Z,15.50
2019-03-15T13:06:14.562Z,15.50
2019-03-15T13:08:42.625Z,15.60
2019-03-15T13:11:10.667Z,15.50
2019-03-15T13:13:38.620Z,15.50
2019-03-15T13:16:06.671Z,15.50
2019-03-15T13:18:34.773Z,15.80
2019-03-15T13:21:02.553Z,16.00
2019-03-15T13:23:30.523Z,16.10
2019-03-15T13:25:58.485Z,15.90
2019-03-15T13:28:26.453Z,16.00
2019-03-15T13:30:54.333Z,16.30
2019-03-15T13:33:22.216Z,16.30
2019-03-15T13:35:50.153Z,16.40
2019-03-15T13:38:18.149Z,16.40
2019-03-15T13:40:46.225Z,16.40
2019-03-15T13:43:14.310Z,16.40
2019-03-15T13:45:42.262Z,16.30
2019-03-15T13:48:10.239Z,16.40
2019-03-15T13:50:37.968Z,16.30
2019-03-15T13:53:05.694Z,16.20
2019-03-15T13:55:33.424Z,16.10
2019-03-15T13:58:01.221Z,16.00
2019-03-15T14:00:28.984Z,16.10
2019-03-15T14:02:56.882Z,16.40
2019-03-15T14:05:29.645Z,16.30
2019-03-15T14:08:10.767Z,16.60
2019-03-15T14:10:27.453Z,16.60
2019-03-15T14:12:55.457Z,16.50
2019-03-15T14:15:23.230Z,16.50
2019-03-15T14:17:50.953Z,16.40
2019-03-15T14:20:18.692Z,16.40
2019-03-15T14:22:46.487Z,16.30
2019-03-15T14:25:14.481Z,16.30
2019-03-15T14:27:42.211Z,16.40
2019-03-15T14:30:10.711Z,16.40
2019-03-15T14:32:38.466Z,16.30
2019-03-15T14:35:06.781Z,16.30
2019-03-15T14:37:34.750Z,16.40
2019-03-15T14:40:02.710Z,16.40
2019-03-15T14:42:30.457Z,16.50
2019-03-15T14:44:58.177Z,16.50
2019-03-15T14:47:25.845Z,16.60
2019-03-15T14:49:53.604Z,16.60
2019-03-15T14:52:21.322Z,16.50
2019-03-15T14:54:49.085Z,16.40
2019-03-15T14:57:17.015Z,16.30
2019-03-15T14:59:45.089Z,16.20
2019-03-15T15:02:13.082Z,16.20
2019-03-15T15:04:41.029Z,16.10
2019-03-15T15:07:09.025Z,16.00
2019-03-15T15:09:36.989Z,16.20
2019-03-15T15:12:04.981Z,16.30
2019-03-15T15:14:32.741Z,16.30
2019-03-15T15:17:00.475Z,16.20
2019-03-15T15:19:28.197Z,16.00
2019-03-15T15:21:56.075Z,15.80
2019-03-15T15:24:23.797Z,15.50
2019-03-15T15:26:51.539Z,15.40
2019-03-15T15:29:22.005Z,15.30
2019-03-15T15:31:48.827Z,15.30
2019-03-15T15:34:16.561Z,15.20
2019-03-15T15:36:44.402Z,15.10
2019-03-15T15:39:12.122Z,15.00
2019-03-15T15:41:39.859Z,14.80
2019-03-15T15:44:07.591Z,14.80
2019-03-15T15:46:35.348Z,15.00
2019-03-15T15:49:03.125Z,15.10
2019-03-15T15:51:30.869Z,15.30
2019-03-15T15:53:58.590Z,15.40
2019-03-15T15:56:26.357Z,15.40
2019-03-15T15:58:54.089Z,15.40
2019-03-15T16:01:21.850Z,15.30
2019-03-15T16:03:49.772Z,15.20
2019-03-15T16:06:17.507Z,15.10
2019-03-15T16:08:45.232Z,15.00
2019-03-15T16:11:12.985Z,14.90
2019-03-15T16:13:40.932Z,14.90
2019-03-15T16:16:08.574Z,14.90
2019-03-15T16:18:36.426Z,14.90
2019-03-15T16:21:04.157Z,15.00
2019-03-15T16:23:31.920Z,14.90
2019-03-15T16:25:59.647Z,14.80
2019-03-15T16:28:32.232Z,14.80
2019-03-15T16:30:56.932Z,14.80
2019-03-15T16:33:24.657Z,14.80
2019-03-15T16:35:52.382Z,14.70
2019-03-15T16:38:20.108Z,14.70
2019-03-15T16:40:47.830Z,14.60
2019-03-15T16:43:15.609Z,14.50
2019-03-15T16:45:43.342Z,14.40
2019-03-15T16:48:11.055Z,14.30
2019-03-15T16:50:38.798Z,14.30
2019-03-15T16:53:06.536Z,14.20
2019-03-15T16:55:34.269Z,14.20
2019-03-15T16:58:02.013Z,14.10
2019-03-15T17:00:29.719Z,14.10
2019-03-15T17:02:57.484Z,14.00
2019-03-15T17:05:25.213Z,14.00
2019-03-15T17:07:53.021Z,13.90
2019-03-15T17:10:20.743Z,13.90
2019-03-15T17:12:48.520Z,13.90
2019-03-15T17:15:16.306Z,13.80
2019-03-15T17:17:44.086Z,13.80
2019-03-15T17:20:11.817Z,13.80
2019-03-15T17:22:39.545Z,13.80
2019-03-15T17:25:07.926Z,13.70
2019-03-15T17:27:35.640Z,13.70
2019-03-15T17:30:04.325Z,13.70
2019-03-15T17:32:32.273Z,13.60
2019-03-15T17:35:00.311Z,13.60
2019-03-15T17:37:28.217Z,13.50
2019-03-15T17:39:55.933Z,13.60
2019-03-15T17:42:23.633Z,13.50
2019-03-15T17:44:51.390Z,13.50
2019-03-15T17:47:19.117Z,13.50
2019-03-15T17:49:46.850Z,13.50
2019-03-15T17:52:14.939Z,13.40
2019-03-15T17:54:45.289Z,13.40
2019-03-15T17:57:13.117Z,13.40
2019-03-15T17:59:42.933Z,13.40
2019-03-15T18:02:10.910Z,13.40
2019-03-15T18:04:38.893Z,13.30
2019-03-15T18:07:06.640Z,13.40
2019-03-15T18:09:34.409Z,13.40
2019-03-15T18:12:02.161Z,13.40
2019-03-15T18:14:29.942Z,13.30
2019-03-15T18:16:57.664Z,13.30
2019-03-15T18:19:25.433Z,13.30
2019-03-15T18:21:53.122Z,13.30
2019-03-15T18:24:20.832Z,13.20
2019-03-15T18:26:48.585Z,13.20
2019-03-15T18:29:25.769Z,13.20
2019-03-15T18:31:45.816Z,13.20
2019-03-15T18:34:13.594Z,13.20
2019-03-15T18:36:43.082Z,13.20
2019-03-15T18:39:10.845Z,13.30
2019-03-15T18:41:38.576Z,13.30
2019-03-15T18:44:06.277Z,13.20
2019-03-15T18:46:34.024Z,13.20
2019-03-15T18:49:01.740Z,13.20
2019-03-15T18:51:29.465Z,13.20
2019-03-15T18:53:57.164Z,13.10
2019-03-15T18:56:24.913Z,13.10
2019-03-15T18:58:52.700Z,13.10
2019-03-15T19:01:20.402Z,13.10
2019-03-15T19:03:48.148Z,13.10
2019-03-15T19:06:15.850Z,13.00
2019-03-15T19:08:43.880Z,13.00
2019-03-15T19:11:11.629Z,13.00
2019-03-15T19:13:40.325Z,12.90
2019-03-15T19:16:19.592Z,12.90
2019-03-15T19:18:38.146Z,12.90
2019-03-15T19:21:07.999Z,12.90
2019-03-15T19:23:35.409Z,12.90
2019-03-15T19:26:03.389Z,12.90
2019-03-15T19:28:31.121Z,12.90
2019-03-15T19:30:58.849Z,12.90
2019-03-15T19:33:26.586Z,12.90
2019-03-15T19:35:54.309Z,12.80
2019-03-15T19:38:22.025Z,12.80
2019-03-15T19:40:49.785Z,12.80
2019-03-15T19:43:17.486Z,12.80
2019-03-15T19:45:45.213Z,12.80
2019-03-15T19:48:13.027Z,12.70
2019-03-15T19:50:40.973Z,12.70
2019-03-15T19:53:08.706Z,12.60
2019-03-15T19:55:36.407Z,12.50
2019-03-15T19:58:04.269Z,12.50
2019-03-15T20:00:32.056Z,12.40
2019-03-15T20:02:59.945Z,12.40
2019-03-15T20:05:28.113Z,12.40
2019-03-15T20:07:56.206Z,12.40
2019-03-15T20:10:24.093Z,12.40
2019-03-15T20:12:52.050Z,12.40
2019-03-15T20:15:20.008Z,12.40
2019-03-15T20:17:48.006Z,12.40
2019-03-15T20:20:15.995Z,12.40
2019-03-15T20:22:43.959Z,12.40
2019-03-15T20:25:11.899Z,12.30
2019-03-15T20:27:39.898Z,12.30
2019-03-15T20:30:20.572Z,12.40
2019-03-15T20:32:39.965Z,12.40
2019-03-15T20:35:07.897Z,12.40
2019-03-15T20:37:35.889Z,12.30
2019-03-15T20:40:03.877Z,12.30
2019-03-15T20:42:31.733Z,12.20
2019-03-15T20:44:59.581Z,12.20
2019-03-15T20:47:27.418Z,12.10
2019-03-15T20:49:55.225Z,12.00
2019-03-15T20:52:23.336Z,11.80
2019-03-15T20:54:51.178Z,11.70
2019-03-15T20:57:18.998Z,11.50
2019-03-15T20:59:46.775Z,11.40
2019-03-15T21:02:14.893Z,11.40
2019-03-15T21:04:42.824Z,11.30
2019-03-15T21:07:10.773Z,11.20
2019-03-15T21:09:38.725Z,11.10
2019-03-15T21:12:06.621Z,11.10
2019-03-15T21:14:34.592Z,11.10
2019-03-15T21:17:02.641Z,11.10
2019-03-15T21:19:30.595Z,11.10
2019-03-15T21:21:58.489Z,11.10
2019-03-15T21:24:26.390Z,11.20
2019-03-15T21:26:54.261Z,11.20
2019-03-15T21:29:22.136Z,11.20
2019-03-15T21:31:50.079Z,11.20
2019-03-15T21:34:18.303Z,11.20
2019-03-15T21:36:46.131Z,11.20
2019-03-15T21:39:14.048Z,11.20
2019-03-15T21:41:41.793Z,11.10
2019-03-15T21:44:09.570Z,11.10
2019-03-15T21:46:37.645Z,11.00
2019-03-15T21:49:05.539Z,10.80
2019-03-15T21:51:33.488Z,10.70
2019-03-15T21:54:01.363Z,10.70
2019-03-15T21:56:29.130Z,10.60
2019-03-15T21:58:57.111Z,10.60
2019-03-15T22:01:25.153Z,10.60
2019-03-15T22:03:53.163Z,10.60
2019-03-15T22:06:21.039Z,10.60
2019-03-15T22:08:49.001Z,10.60
2019-03-15T22:11:21.459Z,10.50
2019-03-15T22:13:46.778Z,10.50
2019-03-15T22:16:14.781Z,10.40
2019-03-15T22:18:42.635Z,10.40
2019-03-15T22:21:10.525Z,10.40
2019-03-15T22:23:38.401Z,10.40
2019-03-15T22:26:06.135Z,10.30
2019-03-15T22:28:34.144Z,10.30
2019-03-15T22:31:15.604Z,10.30
2019-03-15T22:33:31.717Z,10.40
2019-03-15T22:35:59.693Z,10.60
2019-03-15T22:38:27.549Z,10.70
2019-03-15T22:40:55.471Z,10.70
2019-03-15T22:43:23.397Z,10.70
2019-03-15T22:45:51.381Z,10.70
2019-03-15T22:48:19.165Z,10.80
2019-03-15T22:50:47.136Z,10.90
2019-03-15T22:53:15.208Z,10.90
2019-03-15T22:55:43.097Z,10.80
2019-03-15T22:58:11.143Z,10.70
2019-03-15T23:00:39.386Z,10.60
2019-03-15T23:03:07.221Z,10.50
2019-03-15T23:05:35.185Z,10.40
2019-03-15T23:08:03.264Z,10.40
2019-03-15T23:10:31.163Z,10.40
2019-03-15T23:12:58.997Z,10.30
2019-03-15T23:15:26.982Z,10.30
2019-03-15T23:17:55.016Z,10.30
2019-03-15T23:20:23.101Z,10.20
2019-03-15T23:22:51.093Z,10.10
2019-03-15T23:25:19.066Z,10.10
2019-03-15T23:27:47.168Z,10.00
2019-03-15T23:30:15.118Z,10.00
2019-03-15T23:32:43.309Z,9.90
2019-03-15T23:35:11.271Z,9.90
2019-03-15T23:37:39.274Z,9.80
2019-03-15T23:40:07.294Z,9.90
2019-03-15T23:42:35.041Z,9.90
2019-03-15T23:45:03.008Z,9.80
2019-03-15T23:47:30.878Z,9.80
2019-03-15T23:49:58.809Z,9.90
2019-03-15T23:52:26.893Z,10.00
2019-03-15T23:54:54.781Z,10.00
2019-03-15T23:57:22.862Z,10.10
2019-03-15T23:59:50.813Z,10.10
